sensor_id;sensor_type;location;lat;lon;timestamp;temperature;humidity
19110;DHT22;9687;50.836;12.060;2023-07-24T00:01:54;24.80;58.20
19110;DHT22;9687;50.836;12.060;2023-07-24T00:04:26;24.80;58.30
19110;DHT22;9687;50.836;12.060;2023-07-24T00:06:54;24.80;58.40
19110;DHT22;9687;50.836;12.060;2023-07-24T00:09:22;24.80;58.40
19110;DHT22;9687;50.836;12.060;2023-07-24T00:11:49;24.80;58.50
19110;DHT22;9687;50.836;12.060;2023-07-24T00:14:16;24.80;58.50
19110;DHT22;9687;50.836;12.060;2023-07-24T00:16:44;24.80;58.50
19110;DHT22;9687;50.836;12.060;2023-07-24T00:19:11;24.70;58.50
19110;DHT22;9687;50.836;12.060;2023-07-24T00:21:40;24.70;58.50
19110;DHT22;9687;50.836;12.060;2023-07-24T00:24:08;24.70;58.50
19110;DHT22;9687;50.836;12.060;2023-07-24T00:26:36;24.70;58.50
19110;DHT22;9687;50.836;12.060;2023-07-24T00:29:09;24.70;58.60
19110;DHT22;9687;50.836;12.060;2023-07-24T00:31:39;24.70;58.70
19110;DHT22;9687;50.836;12.060;2023-07-24T00:34:09;24.70;58.70
19110;DHT22;9687;50.836;12.060;2023-07-24T00:36:41;24.60;58.60
19110;DHT22;9687;50.836;12.060;2023-07-24T00:39:08;24.60;58.70
19110;DHT22;9687;50.836;12.060;2023-07-24T00:41:35;24.60;58.70
19110;DHT22;9687;50.836;12.060;2023-07-24T00:44:03;24.60;58.70
19110;DHT22;9687;50.836;12.060;2023-07-24T00:46:30;24.60;58.80
19110;DHT22;9687;50.836;12.060;2023-07-24T00:48:58;24.50;58.70
19110;DHT22;9687;50.836;12.060;2023-07-24T00:51:27;24.40;58.80
19110;DHT22;9687;50.836;12.060;2023-07-24T00:53:56;24.40;58.80
19110;DHT22;9687;50.836;12.060;2023-07-24T00:56:25;24.40;58.90
19110;DHT22;9687;50.836;12.060;2023-07-24T00:58:53;24.40;58.90
19110;DHT22;9687;50.836;12.060;2023-07-24T01:01:22;24.40;59.00
19110;DHT22;9687;50.836;12.060;2023-07-24T01:03:49;24.40;59.00
19110;DHT22;9687;50.836;12.060;2023-07-24T01:06:17;24.30;59.00
19110;DHT22;9687;50.836;12.060;2023-07-24T01:08:45;24.30;59.00
19110;DHT22;9687;50.836;12.060;2023-07-24T01:11:15;24.30;59.00
19110;DHT22;9687;50.836;12.060;2023-07-24T01:13:44;24.30;59.00
19110;DHT22;9687;50.836;12.060;2023-07-24T01:16:20;24.20;59.00
19110;DHT22;9687;50.836;12.060;2023-07-24T01:18:49;24.20;59.10
19110;DHT22;9687;50.836;12.060;2023-07-24T01:21:19;24.20;59.10
19110;DHT22;9687;50.836;12.060;2023-07-24T01:23:51;24.20;59.20
19110;DHT22;9687;50.836;12.060;2023-07-24T01:26:23;24.10;59.10
19110;DHT22;9687;50.836;12.060;2023-07-24T01:28:51;24.10;59.30
19110;DHT22;9687;50.836;12.060;2023-07-24T01:31:18;24.00;59.30
19110;DHT22;9687;50.836;12.060;2023-07-24T01:33:45;24.10;59.40
19110;DHT22;9687;50.836;12.060;2023-07-24T01:36:12;24.10;59.40
19110;DHT22;9687;50.836;12.060;2023-07-24T01:38:40;24.00;59.30
19110;DHT22;9687;50.836;12.060;2023-07-24T01:41:08;24.00;59.30
19110;DHT22;9687;50.836;12.060;2023-07-24T01:43:37;23.90;59.20
19110;DHT22;9687;50.836;12.060;2023-07-24T01:46:04;24.00;59.30
19110;DHT22;9687;50.836;12.060;2023-07-24T01:48:32;24.00;59.30
19110;DHT22;9687;50.836;12.060;2023-07-24T01:50:59;24.00;59.30
19110;DHT22;9687;50.836;12.060;2023-07-24T01:53:26;23.90;59.30
19110;DHT22;9687;50.836;12.060;2023-07-24T01:55:54;24.00;59.30
19110;DHT22;9687;50.836;12.060;2023-07-24T01:58:21;24.00;59.30
19110;DHT22;9687;50.836;12.060;2023-07-24T02:00:49;23.90;59.20
19110;DHT22;9687;50.836;12.060;2023-07-24T02:03:16;23.90;59.20
19110;DHT22;9687;50.836;12.060;2023-07-24T02:05:48;23.90;59.20
19110;DHT22;9687;50.836;12.060;2023-07-24T02:08:16;24.00;59.30
19110;DHT22;9687;50.836;12.060;2023-07-24T02:10:43;24.00;59.20
19110;DHT22;9687;50.836;12.060;2023-07-24T02:13:11;24.00;59.20
19110;DHT22;9687;50.836;12.060;2023-07-24T02:15:39;24.00;59.20
19110;DHT22;9687;50.836;12.060;2023-07-24T02:18:07;24.00;59.20
19110;DHT22;9687;50.836;12.060;2023-07-24T02:20:34;24.00;59.20
19110;DHT22;9687;50.836;12.060;2023-07-24T02:23:02;24.00;59.10
19110;DHT22;9687;50.836;12.060;2023-07-24T02:25:29;24.00;59.10
19110;DHT22;9687;50.836;12.060;2023-07-24T02:27:56;24.00;59.10
19110;DHT22;9687;50.836;12.060;2023-07-24T02:30:24;24.00;59.10
19110;DHT22;9687;50.836;12.060;2023-07-24T02:32:51;23.90;59.00
19110;DHT22;9687;50.836;12.060;2023-07-24T02:35:20;23.90;58.90
19110;DHT22;9687;50.836;12.060;2023-07-24T02:37:48;23.90;58.90
19110;DHT22;9687;50.836;12.060;2023-07-24T02:40:15;23.90;58.90
19110;DHT22;9687;50.836;12.060;2023-07-24T02:42:43;24.00;59.00
19110;DHT22;9687;50.836;12.060;2023-07-24T02:45:10;24.00;58.90
19110;DHT22;9687;50.836;12.060;2023-07-24T02:47:37;24.00;58.90
19110;DHT22;9687;50.836;12.060;2023-07-24T02:50:05;24.00;58.80
19110;DHT22;9687;50.836;12.060;2023-07-24T02:52:34;23.90;58.70
19110;DHT22;9687;50.836;12.060;2023-07-24T02:55:02;23.90;58.70
19110;DHT22;9687;50.836;12.060;2023-07-24T02:57:30;23.90;58.70
19110;DHT22;9687;50.836;12.060;2023-07-24T02:59:58;23.80;58.60
19110;DHT22;9687;50.836;12.060;2023-07-24T03:02:25;23.90;58.70
19110;DHT22;9687;50.836;12.060;2023-07-24T03:04:54;23.80;58.70
19110;DHT22;9687;50.836;12.060;2023-07-24T03:07:21;23.80;58.70
19110;DHT22;9687;50.836;12.060;2023-07-24T03:09:51;23.80;58.70
19110;DHT22;9687;50.836;12.060;2023-07-24T03:12:19;23.80;58.70
19110;DHT22;9687;50.836;12.060;2023-07-24T03:14:50;23.80;58.60
19110;DHT22;9687;50.836;12.060;2023-07-24T03:17:19;23.80;58.60
19110;DHT22;9687;50.836;12.060;2023-07-24T03:19:47;23.80;58.60
19110;DHT22;9687;50.836;12.060;2023-07-24T03:22:15;23.90;58.70
19110;DHT22;9687;50.836;12.060;2023-07-24T03:24:43;23.80;58.60
19110;DHT22;9687;50.836;12.060;2023-07-24T03:27:15;23.90;59.20
19110;DHT22;9687;50.836;12.060;2023-07-24T03:29:43;23.90;58.60
19110;DHT22;9687;50.836;12.060;2023-07-24T03:32:10;23.90;58.60
19110;DHT22;9687;50.836;12.060;2023-07-24T03:34:38;23.90;58.60
19110;DHT22;9687;50.836;12.060;2023-07-24T03:37:05;23.90;58.60
19110;DHT22;9687;50.836;12.060;2023-07-24T03:39:32;23.90;58.60
19110;DHT22;9687;50.836;12.060;2023-07-24T03:42:01;23.80;58.50
19110;DHT22;9687;50.836;12.060;2023-07-24T03:44:30;23.90;58.60
19110;DHT22;9687;50.836;12.060;2023-07-24T03:46:57;23.90;58.50
19110;DHT22;9687;50.836;12.060;2023-07-24T03:49:25;23.90;58.60
19110;DHT22;9687;50.836;12.060;2023-07-24T03:51:52;23.80;58.50
19110;DHT22;9687;50.836;12.060;2023-07-24T03:54:19;23.90;58.60
19110;DHT22;9687;50.836;12.060;2023-07-24T03:56:49;23.80;58.40
19110;DHT22;9687;50.836;12.060;2023-07-24T03:59:16;23.80;58.40
19110;DHT22;9687;50.836;12.060;2023-07-24T04:01:45;23.80;58.50
19110;DHT22;9687;50.836;12.060;2023-07-24T04:04:18;23.80;58.40
19110;DHT22;9687;50.836;12.060;2023-07-24T04:06:46;23.80;58.40
19110;DHT22;9687;50.836;12.060;2023-07-24T04:09:14;23.80;58.40
19110;DHT22;9687;50.836;12.060;2023-07-24T04:11:42;23.80;59.00
19110;DHT22;9687;50.836;12.060;2023-07-24T04:14:09;23.70;58.30
19110;DHT22;9687;50.836;12.060;2023-07-24T04:16:37;23.80;58.40
19110;DHT22;9687;50.836;12.060;2023-07-24T04:19:05;23.80;58.40
19110;DHT22;9687;50.836;12.060;2023-07-24T04:21:32;23.80;58.40
19110;DHT22;9687;50.836;12.060;2023-07-24T04:24:01;23.80;58.30
19110;DHT22;9687;50.836;12.060;2023-07-24T04:26:29;23.80;58.30
19110;DHT22;9687;50.836;12.060;2023-07-24T04:28:57;23.80;58.30
19110;DHT22;9687;50.836;12.060;2023-07-24T04:31:50;23.80;58.30
19110;DHT22;9687;50.836;12.060;2023-07-24T04:34:29;23.80;58.30
19110;DHT22;9687;50.836;12.060;2023-07-24T04:36:56;23.80;58.20
19110;DHT22;9687;50.836;12.060;2023-07-24T04:39:24;23.80;58.10
19110;DHT22;9687;50.836;12.060;2023-07-24T04:41:52;23.80;58.10
19110;DHT22;9687;50.836;12.060;2023-07-24T04:44:26;23.80;58.10
19110;DHT22;9687;50.836;12.060;2023-07-24T04:46:53;23.80;58.00
19110;DHT22;9687;50.836;12.060;2023-07-24T04:49:31;23.80;58.10
19110;DHT22;9687;50.836;12.060;2023-07-24T04:51:59;23.80;58.10
19110;DHT22;9687;50.836;12.060;2023-07-24T04:54:28;23.80;58.70
19110;DHT22;9687;50.836;12.060;2023-07-24T04:56:59;23.80;58.10
19110;DHT22;9687;50.836;12.060;2023-07-24T04:59:26;23.70;58.10
19110;DHT22;9687;50.836;12.060;2023-07-24T05:01:55;23.80;58.10
19110;DHT22;9687;50.836;12.060;2023-07-24T05:04:43;23.80;58.20
19110;DHT22;9687;50.836;12.060;2023-07-24T05:07:12;23.70;58.10
19110;DHT22;9687;50.836;12.060;2023-07-24T05:09:41;23.80;58.20
19110;DHT22;9687;50.836;12.060;2023-07-24T05:12:10;23.80;58.10
19110;DHT22;9687;50.836;12.060;2023-07-24T05:14:39;23.80;58.10
19110;DHT22;9687;50.836;12.060;2023-07-24T05:17:07;23.80;58.10
19110;DHT22;9687;50.836;12.060;2023-07-24T05:19:36;23.90;58.20
19110;DHT22;9687;50.836;12.060;2023-07-24T05:22:04;23.90;58.10
19110;DHT22;9687;50.836;12.060;2023-07-24T05:24:32;23.90;58.10
19110;DHT22;9687;50.836;12.060;2023-07-24T05:27:00;23.90;58.10
19110;DHT22;9687;50.836;12.060;2023-07-24T05:29:28;23.90;58.10
19110;DHT22;9687;50.836;12.060;2023-07-24T05:31:56;24.00;58.20
19110;DHT22;9687;50.836;12.060;2023-07-24T05:34:24;24.00;58.10
19110;DHT22;9687;50.836;12.060;2023-07-24T05:36:52;24.00;58.10
19110;DHT22;9687;50.836;12.060;2023-07-24T05:39:21;24.00;58.10
19110;DHT22;9687;50.836;12.060;2023-07-24T05:41:48;24.00;58.10
19110;DHT22;9687;50.836;12.060;2023-07-24T05:44:16;24.00;58.10
19110;DHT22;9687;50.836;12.060;2023-07-24T05:46:44;24.00;58.10
19110;DHT22;9687;50.836;12.060;2023-07-24T05:49:12;24.00;58.10
19110;DHT22;9687;50.836;12.060;2023-07-24T05:51:41;24.10;58.20
19110;DHT22;9687;50.836;12.060;2023-07-24T05:54:08;24.10;58.20
19110;DHT22;9687;50.836;12.060;2023-07-24T05:56:37;24.00;58.20
19110;DHT22;9687;50.836;12.060;2023-07-24T05:59:05;24.10;58.30
19110;DHT22;9687;50.836;12.060;2023-07-24T06:01:32;24.10;58.30
19110;DHT22;9687;50.836;12.060;2023-07-24T06:04:01;24.10;58.30
19110;DHT22;9687;50.836;12.060;2023-07-24T06:06:29;24.10;58.40
19110;DHT22;9687;50.836;12.060;2023-07-24T06:08:57;24.10;58.40
19110;DHT22;9687;50.836;12.060;2023-07-24T06:11:25;24.10;58.40
19110;DHT22;9687;50.836;12.060;2023-07-24T06:13:56;24.10;58.40
19110;DHT22;9687;50.836;12.060;2023-07-24T06:16:27;24.20;58.50
19110;DHT22;9687;50.836;12.060;2023-07-24T06:18:55;24.20;58.50
19110;DHT22;9687;50.836;12.060;2023-07-24T06:21:25;24.30;58.60
19110;DHT22;9687;50.836;12.060;2023-07-24T06:23:53;24.20;58.40
19110;DHT22;9687;50.836;12.060;2023-07-24T06:26:22;24.30;58.50
19110;DHT22;9687;50.836;12.060;2023-07-24T06:28:57;24.30;58.50
19110;DHT22;9687;50.836;12.060;2023-07-24T06:31:25;24.30;58.60
19110;DHT22;9687;50.836;12.060;2023-07-24T06:33:52;24.40;58.70
19110;DHT22;9687;50.836;12.060;2023-07-24T06:36:22;24.40;58.60
19110;DHT22;9687;50.836;12.060;2023-07-24T06:38:51;24.50;58.60
19110;DHT22;9687;50.836;12.060;2023-07-24T06:41:18;24.40;58.60
19110;DHT22;9687;50.836;12.060;2023-07-24T06:43:50;24.50;58.70
19110;DHT22;9687;50.836;12.060;2023-07-24T06:46:21;24.60;58.70
19110;DHT22;9687;50.836;12.060;2023-07-24T06:48:50;24.60;58.70
19110;DHT22;9687;50.836;12.060;2023-07-24T06:51:20;24.70;58.80
19110;DHT22;9687;50.836;12.060;2023-07-24T06:53:50;24.70;58.70
19110;DHT22;9687;50.836;12.060;2023-07-24T06:56:17;24.80;58.60
19110;DHT22;9687;50.836;12.060;2023-07-24T06:58:45;24.80;58.60
19110;DHT22;9687;50.836;12.060;2023-07-24T07:01:12;24.90;58.70
19110;DHT22;9687;50.836;12.060;2023-07-24T07:03:41;24.90;58.70
19110;DHT22;9687;50.836;12.060;2023-07-24T07:06:11;24.90;58.70
19110;DHT22;9687;50.836;12.060;2023-07-24T07:08:39;25.00;59.30
19110;DHT22;9687;50.836;12.060;2023-07-24T07:11:07;25.00;58.70
19110;DHT22;9687;50.836;12.060;2023-07-24T07:13:34;25.00;58.70
19110;DHT22;9687;50.836;12.060;2023-07-24T07:16:05;25.10;58.80
19110;DHT22;9687;50.836;12.060;2023-07-24T07:18:33;25.10;58.80
19110;DHT22;9687;50.836;12.060;2023-07-24T07:21:03;25.10;58.80
19110;DHT22;9687;50.836;12.060;2023-07-24T07:23:33;25.20;58.80
19110;DHT22;9687;50.836;12.060;2023-07-24T07:26:00;25.20;58.80
19110;DHT22;9687;50.836;12.060;2023-07-24T07:28:27;25.30;58.80
19110;DHT22;9687;50.836;12.060;2023-07-24T07:30:56;25.30;58.80
19110;DHT22;9687;50.836;12.060;2023-07-24T07:33:24;25.30;58.60
19110;DHT22;9687;50.836;12.060;2023-07-24T07:35:51;25.40;58.60
19110;DHT22;9687;50.836;12.060;2023-07-24T07:38:21;25.40;58.60
19110;DHT22;9687;50.836;12.060;2023-07-24T07:40:48;25.50;58.70
19110;DHT22;9687;50.836;12.060;2023-07-24T07:43:16;25.50;58.70
19110;DHT22;9687;50.836;12.060;2023-07-24T07:45:43;25.60;58.70
19110;DHT22;9687;50.836;12.060;2023-07-24T07:48:10;25.60;58.70
19110;DHT22;9687;50.836;12.060;2023-07-24T07:50:38;25.70;58.70
19110;DHT22;9687;50.836;12.060;2023-07-24T07:53:05;25.70;58.60
19110;DHT22;9687;50.836;12.060;2023-07-24T07:55:37;25.70;58.60
19110;DHT22;9687;50.836;12.060;2023-07-24T07:58:04;25.70;58.60
19110;DHT22;9687;50.836;12.060;2023-07-24T08:00:31;25.70;58.60
19110;DHT22;9687;50.836;12.060;2023-07-24T08:02:58;25.70;58.60
19110;DHT22;9687;50.836;12.060;2023-07-24T08:05:26;25.70;58.60
19110;DHT22;9687;50.836;12.060;2023-07-24T08:07:53;25.70;58.60
19110;DHT22;9687;50.836;12.060;2023-07-24T08:10:20;25.70;58.60
19110;DHT22;9687;50.836;12.060;2023-07-24T08:12:49;25.70;58.60
19110;DHT22;9687;50.836;12.060;2023-07-24T08:15:17;25.70;58.60
19110;DHT22;9687;50.836;12.060;2023-07-24T08:17:44;25.80;58.60
19110;DHT22;9687;50.836;12.060;2023-07-24T08:20:12;25.80;58.60
19110;DHT22;9687;50.836;12.060;2023-07-24T08:22:40;25.80;58.60
19110;DHT22;9687;50.836;12.060;2023-07-24T08:25:07;25.80;58.50
19110;DHT22;9687;50.836;12.060;2023-07-24T08:27:40;25.80;58.40
19110;DHT22;9687;50.836;12.060;2023-07-24T08:30:11;25.90;58.40
19110;DHT22;9687;50.836;12.060;2023-07-24T08:32:57;25.90;58.30
19110;DHT22;9687;50.836;12.060;2023-07-24T08:35:25;26.00;58.40
19110;DHT22;9687;50.836;12.060;2023-07-24T08:37:52;26.00;58.40
19110;DHT22;9687;50.836;12.060;2023-07-24T08:40:21;26.10;58.20
19110;DHT22;9687;50.836;12.060;2023-07-24T08:42:48;26.20;58.20
19110;DHT22;9687;50.836;12.060;2023-07-24T08:45:17;26.20;58.20
19110;DHT22;9687;50.836;12.060;2023-07-24T08:47:45;26.30;58.20
19110;DHT22;9687;50.836;12.060;2023-07-24T08:50:13;26.30;58.20
19110;DHT22;9687;50.836;12.060;2023-07-24T08:52:41;26.40;58.40
19110;DHT22;9687;50.836;12.060;2023-07-24T08:55:11;26.50;58.40
19110;DHT22;9687;50.836;12.060;2023-07-24T08:57:38;26.60;58.20
19110;DHT22;9687;50.836;12.060;2023-07-24T09:00:06;26.60;58.20
19110;DHT22;9687;50.836;12.060;2023-07-24T09:02:35;26.70;58.20
19110;DHT22;9687;50.836;12.060;2023-07-24T09:05:04;26.80;58.30
19110;DHT22;9687;50.836;12.060;2023-07-24T09:07:31;26.70;57.90
19110;DHT22;9687;50.836;12.060;2023-07-24T09:10:00;26.70;58.10
19110;DHT22;9687;50.836;12.060;2023-07-24T09:12:27;26.60;59.60
19110;DHT22;9687;50.836;12.060;2023-07-24T09:15:03;26.50;60.80
19110;DHT22;9687;50.836;12.060;2023-07-24T09:17:32;26.40;61.80
19110;DHT22;9687;50.836;12.060;2023-07-24T09:20:01;26.30;62.60
19110;DHT22;9687;50.836;12.060;2023-07-24T09:22:30;26.30;63.50
19110;DHT22;9687;50.836;12.060;2023-07-24T09:24:58;26.20;63.40
19110;DHT22;9687;50.836;12.060;2023-07-24T09:27:25;26.10;63.80
19110;DHT22;9687;50.836;12.060;2023-07-24T09:30:00;26.00;64.10
19110;DHT22;9687;50.836;12.060;2023-07-24T09:32:29;25.90;64.60
19110;DHT22;9687;50.836;12.060;2023-07-24T09:34:57;25.80;64.80
19110;DHT22;9687;50.836;12.060;2023-07-24T09:37:27;25.70;64.70
19110;DHT22;9687;50.836;12.060;2023-07-24T09:39:54;25.70;65.00
19110;DHT22;9687;50.836;12.060;2023-07-24T09:42:28;25.70;65.10
19110;DHT22;9687;50.836;12.060;2023-07-24T09:44:55;25.50;65.10
19110;DHT22;9687;50.836;12.060;2023-07-24T09:47:26;25.50;65.10
19110;DHT22;9687;50.836;12.060;2023-07-24T09:49:53;25.50;65.20
19110;DHT22;9687;50.836;12.060;2023-07-24T09:52:21;25.50;65.20
19110;DHT22;9687;50.836;12.060;2023-07-24T09:54:51;25.60;65.10
19110;DHT22;9687;50.836;12.060;2023-07-24T09:57:21;25.80;65.10
19110;DHT22;9687;50.836;12.060;2023-07-24T09:59:49;26.10;64.70
19110;DHT22;9687;50.836;12.060;2023-07-24T10:02:18;26.40;64.50
19110;DHT22;9687;50.836;12.060;2023-07-24T10:04:45;27.10;63.90
19110;DHT22;9687;50.836;12.060;2023-07-24T10:07:13;28.00;62.80
19110;DHT22;9687;50.836;12.060;2023-07-24T10:09:42;28.90;61.30
19110;DHT22;9687;50.836;12.060;2023-07-24T10:12:12;29.80;59.80
19110;DHT22;9687;50.836;12.060;2023-07-24T10:14:39;30.70;58.40
19110;DHT22;9687;50.836;12.060;2023-07-24T10:17:09;31.50;57.50
19110;DHT22;9687;50.836;12.060;2023-07-24T10:19:46;32.20;56.50
19110;DHT22;9687;50.836;12.060;2023-07-24T10:22:33;32.60;55.50
19110;DHT22;9687;50.836;12.060;2023-07-24T10:25:00;32.70;54.40
19110;DHT22;9687;50.836;12.060;2023-07-24T10:27:29;32.60;54.10
19110;DHT22;9687;50.836;12.060;2023-07-24T10:29:58;32.50;54.00
19110;DHT22;9687;50.836;12.060;2023-07-24T10:32:25;32.20;54.00
19110;DHT22;9687;50.836;12.060;2023-07-24T10:34:56;32.00;54.20
19110;DHT22;9687;50.836;12.060;2023-07-24T10:37:31;31.90;54.40
19110;DHT22;9687;50.836;12.060;2023-07-24T10:39:59;31.70;54.30
19110;DHT22;9687;50.836;12.060;2023-07-24T10:42:26;31.50;54.40
19110;DHT22;9687;50.836;12.060;2023-07-24T10:45:03;31.30;54.40
19110;DHT22;9687;50.836;12.060;2023-07-24T10:47:32;31.00;54.60
19110;DHT22;9687;50.836;12.060;2023-07-24T10:50:01;30.80;54.70
19110;DHT22;9687;50.836;12.060;2023-07-24T10:52:29;30.40;54.90
19110;DHT22;9687;50.836;12.060;2023-07-24T10:55:06;30.10;55.10
19110;DHT22;9687;50.836;12.060;2023-07-24T10:57:42;29.80;55.50
19110;DHT22;9687;50.836;12.060;2023-07-24T11:00:11;29.50;55.80
19110;DHT22;9687;50.836;12.060;2023-07-24T11:02:39;29.20;56.10
19110;DHT22;9687;50.836;12.060;2023-07-24T11:05:06;29.00;56.50
19110;DHT22;9687;50.836;12.060;2023-07-24T11:07:34;28.80;56.40
19110;DHT22;9687;50.836;12.060;2023-07-24T11:10:01;28.60;56.70
19110;DHT22;9687;50.836;12.060;2023-07-24T11:12:29;28.40;57.00
19110;DHT22;9687;50.836;12.060;2023-07-24T11:14:58;28.30;57.00
19110;DHT22;9687;50.836;12.060;2023-07-24T11:17:34;28.30;56.90
19110;DHT22;9687;50.836;12.060;2023-07-24T11:20:10;28.20;56.90
19110;DHT22;9687;50.836;12.060;2023-07-24T11:22:38;28.30;57.00
19110;DHT22;9687;50.836;12.060;2023-07-24T11:25:05;28.30;57.00
19110;DHT22;9687;50.836;12.060;2023-07-24T11:27:37;28.20;57.00
19110;DHT22;9687;50.836;12.060;2023-07-24T11:30:05;28.20;57.10
19110;DHT22;9687;50.836;12.060;2023-07-24T11:32:34;28.10;57.20
19110;DHT22;9687;50.836;12.060;2023-07-24T11:35:03;28.00;57.30
19110;DHT22;9687;50.836;12.060;2023-07-24T11:37:31;28.00;57.50
19110;DHT22;9687;50.836;12.060;2023-07-24T11:39:59;27.90;57.80
19110;DHT22;9687;50.836;12.060;2023-07-24T11:42:30;27.80;58.10
19110;DHT22;9687;50.836;12.060;2023-07-24T11:45:00;27.70;58.30
19110;DHT22;9687;50.836;12.060;2023-07-24T11:47:27;27.70;58.60
19110;DHT22;9687;50.836;12.060;2023-07-24T11:49:57;27.70;58.90
19110;DHT22;9687;50.836;12.060;2023-07-24T11:52:24;27.90;59.00
19110;DHT22;9687;50.836;12.060;2023-07-24T11:54:58;28.10;58.80
19110;DHT22;9687;50.836;12.060;2023-07-24T11:57:27;28.30;58.50
19110;DHT22;9687;50.836;12.060;2023-07-24T11:59:55;28.60;58.30
19110;DHT22;9687;50.836;12.060;2023-07-24T12:02:25;28.80;58.10
19110;DHT22;9687;50.836;12.060;2023-07-24T12:04:54;28.90;57.90
19110;DHT22;9687;50.836;12.060;2023-07-24T12:07:27;28.80;57.90
19110;DHT22;9687;50.836;12.060;2023-07-24T12:10:01;28.80;58.00
19110;DHT22;9687;50.836;12.060;2023-07-24T12:12:38;28.80;58.10
19110;DHT22;9687;50.836;12.060;2023-07-24T12:15:06;28.70;58.20
19110;DHT22;9687;50.836;12.060;2023-07-24T12:17:34;28.60;58.30
19110;DHT22;9687;50.836;12.060;2023-07-24T12:20:01;28.60;58.40
19110;DHT22;9687;50.836;12.060;2023-07-24T12:22:33;28.60;58.60
19110;DHT22;9687;50.836;12.060;2023-07-24T12:25:01;28.60;58.80
19110;DHT22;9687;50.836;12.060;2023-07-24T12:27:30;28.60;58.70
19110;DHT22;9687;50.836;12.060;2023-07-24T12:29:59;28.60;58.90
19110;DHT22;9687;50.836;12.060;2023-07-24T12:32:26;28.50;58.90
19110;DHT22;9687;50.836;12.060;2023-07-24T12:34:53;28.40;59.10
19110;DHT22;9687;50.836;12.060;2023-07-24T12:37:22;28.30;59.40
19110;DHT22;9687;50.836;12.060;2023-07-24T12:39:53;28.20;59.40
19110;DHT22;9687;50.836;12.060;2023-07-24T12:42:22;28.10;59.80
19110;DHT22;9687;50.836;12.060;2023-07-24T12:44:50;28.00;60.10
19110;DHT22;9687;50.836;12.060;2023-07-24T12:47:19;27.90;60.60
19110;DHT22;9687;50.836;12.060;2023-07-24T12:49:47;27.80;60.80
19110;DHT22;9687;50.836;12.060;2023-07-24T12:52:15;27.70;61.20
19110;DHT22;9687;50.836;12.060;2023-07-24T12:54:43;27.60;61.50
19110;DHT22;9687;50.836;12.060;2023-07-24T12:57:14;27.60;61.50
19110;DHT22;9687;50.836;12.060;2023-07-24T12:59:47;27.60;61.60
19110;DHT22;9687;50.836;12.060;2023-07-24T13:02:15;27.60;61.40
19110;DHT22;9687;50.836;12.060;2023-07-24T13:04:47;27.60;60.90
19110;DHT22;9687;50.836;12.060;2023-07-24T13:07:16;27.70;60.60
19110;DHT22;9687;50.836;12.060;2023-07-24T13:09:44;27.70;61.00
19110;DHT22;9687;50.836;12.060;2023-07-24T13:12:13;27.70;60.00
19110;DHT22;9687;50.836;12.060;2023-07-24T13:14:40;27.80;59.90
19110;DHT22;9687;50.836;12.060;2023-07-24T13:17:08;27.80;59.60
19110;DHT22;9687;50.836;12.060;2023-07-24T13:19:35;27.80;59.60
19110;DHT22;9687;50.836;12.060;2023-07-24T13:22:03;27.80;59.20
19110;DHT22;9687;50.836;12.060;2023-07-24T13:24:31;27.80;59.30
19110;DHT22;9687;50.836;12.060;2023-07-24T13:26:59;27.80;59.40
19110;DHT22;9687;50.836;12.060;2023-07-24T13:29:29;27.80;58.90
19110;DHT22;9687;50.836;12.060;2023-07-24T13:31:56;27.80;58.80
19110;DHT22;9687;50.836;12.060;2023-07-24T13:34:23;27.80;58.90
19110;DHT22;9687;50.836;12.060;2023-07-24T13:36:52;27.80;58.80
19110;DHT22;9687;50.836;12.060;2023-07-24T13:39:20;27.80;58.70
19110;DHT22;9687;50.836;12.060;2023-07-24T13:41:47;27.80;58.70
19110;DHT22;9687;50.836;12.060;2023-07-24T13:44:15;27.80;58.40
19110;DHT22;9687;50.836;12.060;2023-07-24T13:46:44;27.80;58.50
19110;DHT22;9687;50.836;12.060;2023-07-24T13:49:12;27.80;58.50
19110;DHT22;9687;50.836;12.060;2023-07-24T13:51:44;27.90;58.50
19110;DHT22;9687;50.836;12.060;2023-07-24T13:54:12;27.90;58.40
19110;DHT22;9687;50.836;12.060;2023-07-24T13:56:42;27.90;58.40
19110;DHT22;9687;50.836;12.060;2023-07-24T13:59:09;27.80;58.20
19110;DHT22;9687;50.836;12.060;2023-07-24T14:01:36;27.80;58.40
19110;DHT22;9687;50.836;12.060;2023-07-24T14:04:05;27.80;58.40
19110;DHT22;9687;50.836;12.060;2023-07-24T14:06:33;27.70;58.40
19110;DHT22;9687;50.836;12.060;2023-07-24T14:09:01;27.80;58.40
19110;DHT22;9687;50.836;12.060;2023-07-24T14:11:30;27.70;58.40
19110;DHT22;9687;50.836;12.060;2023-07-24T14:14:01;27.70;58.40
19110;DHT22;9687;50.836;12.060;2023-07-24T14:16:31;27.70;58.50
19110;DHT22;9687;50.836;12.060;2023-07-24T14:18:58;27.70;58.40
19110;DHT22;9687;50.836;12.060;2023-07-24T14:21:27;27.70;58.30
19110;DHT22;9687;50.836;12.060;2023-07-24T14:23:55;27.80;58.40
19110;DHT22;9687;50.836;12.060;2023-07-24T14:26:25;27.70;58.30
19110;DHT22;9687;50.836;12.060;2023-07-24T14:28:53;27.80;58.40
19110;DHT22;9687;50.836;12.060;2023-07-24T14:31:24;27.80;58.40
19110;DHT22;9687;50.836;12.060;2023-07-24T14:33:54;27.80;58.30
19110;DHT22;9687;50.836;12.060;2023-07-24T14:36:28;27.80;58.20
19110;DHT22;9687;50.836;12.060;2023-07-24T14:39:02;27.90;58.40
19110;DHT22;9687;50.836;12.060;2023-07-24T14:41:29;27.90;58.40
19110;DHT22;9687;50.836;12.060;2023-07-24T14:43:56;27.80;58.20
19110;DHT22;9687;50.836;12.060;2023-07-24T14:46:28;27.80;58.20
19110;DHT22;9687;50.836;12.060;2023-07-24T14:49:00;27.80;58.20
19110;DHT22;9687;50.836;12.060;2023-07-24T14:51:51;27.80;58.20
19110;DHT22;9687;50.836;12.060;2023-07-24T14:54:18;27.80;58.10
19110;DHT22;9687;50.836;12.060;2023-07-24T14:56:46;27.80;58.10
19110;DHT22;9687;50.836;12.060;2023-07-24T14:59:13;27.80;58.00
19110;DHT22;9687;50.836;12.060;2023-07-24T15:01:40;27.70;57.80
19110;DHT22;9687;50.836;12.060;2023-07-24T15:04:07;27.70;57.80
19110;DHT22;9687;50.836;12.060;2023-07-24T15:06:35;27.70;57.90
19110;DHT22;9687;50.836;12.060;2023-07-24T15:09:04;27.70;57.80
19110;DHT22;9687;50.836;12.060;2023-07-24T15:11:31;27.70;57.70
19110;DHT22;9687;50.836;12.060;2023-07-24T15:13:58;27.80;57.60
19110;DHT22;9687;50.836;12.060;2023-07-24T15:16:26;27.70;57.50
19110;DHT22;9687;50.836;12.060;2023-07-24T15:18:56;27.70;57.50
19110;DHT22;9687;50.836;12.060;2023-07-24T15:21:24;27.70;57.40
19110;DHT22;9687;50.836;12.060;2023-07-24T15:23:52;27.80;57.30
19110;DHT22;9687;50.836;12.060;2023-07-24T15:26:32;27.80;57.20
19110;DHT22;9687;50.836;12.060;2023-07-24T15:29:00;27.80;57.00
19110;DHT22;9687;50.836;12.060;2023-07-24T15:31:28;27.80;57.10
19110;DHT22;9687;50.836;12.060;2023-07-24T15:34:01;27.90;56.80
19110;DHT22;9687;50.836;12.060;2023-07-24T15:36:39;27.80;56.80
19110;DHT22;9687;50.836;12.060;2023-07-24T15:39:15;27.90;56.70
19110;DHT22;9687;50.836;12.060;2023-07-24T15:42:04;27.80;56.50